Ide Min — PC8366 — position and weather

sailwx.info

Track history (hours):
 
Tides and Currents Weather Stations Pressure Air Temp Water Temp Dewpoint Dewpoint Depression Visibility Wind Speed Wind Dir Waves Ship Positions

Ide Min (Netherlands)

Ship's website: http://www.idemin.nl/english/english.html

Last reported at 2016-Nov-19 01:32 UTC. Time now 2016-Dec-10 09:00 UTC.
Position N 52°23' E 004°53'.
Warning: this ship's position is 21 days out of date.

Length 40 m; draft 2.4 m.

MMSI: 244537000.

Date/timePositionNaut miles runAvg speedWind from/ knotsBaromVisibWave heightAir tempDewpointWater temp
2016-Nov-19 01:32N 52°23' E 004°53'0 0.0
2016-Nov-19 00:32N 52°23' E 004°53'0 0.0
2016-Nov-18 23:32N 52°23' E 004°53'0 0.0
2016-Nov-18 20:32N 52°23' E 004°53'0 0.0
2016-Nov-18 18:32N 52°23' E 004°53'0 0.0
2016-Nov-18 17:32N 52°23' E 004°53'0 0.0
2016-Nov-18 14:32N 52°23' E 004°53'0 0.0
2016-Nov-18 12:32N 52°23' E 004°53'0 0.0
2016-Nov-18 11:32N 52°23' E 004°53'0 0.0
2016-Nov-18 09:32N 52°23' E 004°53'0 0.0
2016-Nov-18 07:32N 52°23' E 004°53'0 0.0
2016-Nov-18 05:32N 52°23' E 004°53'0 0.0
2016-Nov-18 04:32N 52°23' E 004°53'0 0.0
2016-Nov-18 01:32N 52°23' E 004°53'0 0.0
2016-Nov-18 00:32N 52°23' E 004°53'0 0.0
2016-Nov-17 23:32N 52°23' E 004°53'0 0.0
2016-Nov-17 22:32N 52°23' E 004°53'0 0.0
2016-Nov-17 21:32N 52°23' E 004°53'0 0.0
2016-Nov-17 19:32N 52°23' E 004°53'0 0.0
2016-Nov-17 18:32N 52°23' E 004°53'0 0.0
2016-Nov-17 14:32N 52°23' E 004°53'0 0.0
2016-Nov-17 13:32N 52°23' E 004°53'0 0.0
2016-Nov-17 12:32N 52°23' E 004°53'0 0.0
2016-Nov-17 11:32N 52°23' E 004°53'0 0.0
2016-Nov-17 08:32N 52°23' E 004°53'0 0.0
2016-Nov-17 06:32N 52°23' E 004°53'0 0.0
2016-Nov-17 02:32N 52°23' E 004°53'0 0.0
2016-Nov-16 23:32N 52°23' E 004°53'0 0.0
2016-Nov-16 22:32N 52°23' E 004°53'0 0.0
2016-Nov-16 20:32N 52°23' E 004°53'0 0.0
2016-Nov-16 19:32N 52°23' E 004°53'0 0.0
2016-Nov-16 18:32N 52°23' E 004°53'0 0.0
2016-Nov-16 17:32N 52°23' E 004°53'0 0.0
2016-Nov-16 16:32N 52°23' E 004°53'12 2.9
2016-Nov-16 12:22N 52°27' E 004°35'0 0.0
2016-Nov-16 09:30N 52°27' E 004°35'0 0.0
2016-Nov-16 08:33N 52°27' E 004°35'0 0.0
2016-Nov-16 07:34N 52°27' E 004°35'0 0.0
2016-Nov-16 06:31N 52°27' E 004°35'0 0.0
2016-Nov-16 04:33N 52°27' E 004°35'0 0.0
2016-Nov-16 03:33N 52°27' E 004°35'0 0.0
2016-Nov-16 02:33N 52°27' E 004°35'0 0.0
2016-Nov-16 01:33N 52°27' E 004°35'0 0.0
2016-Nov-15 21:33N 52°27' E 004°35'0 0.0
2016-Nov-15 19:33N 52°27' E 004°35'0 0.0
2016-Nov-15 18:33N 52°27' E 004°35'0 0.0
2016-Nov-15 13:33N 52°27' E 004°35'0 0.0
2016-Nov-15 12:33N 52°27' E 004°35'0 0.0
2016-Nov-15 11:33N 52°27' E 004°35'0 0.0
2016-Nov-15 10:33N 52°27' E 004°35'0 0.0
2016-Nov-15 07:33N 52°27' E 004°35'0 0.0
2016-Nov-15 06:33N 52°27' E 004°35'0 0.0
2016-Nov-15 05:51N 52°27' E 004°35'0 0.0
2016-Nov-15 03:33N 52°27' E 004°35'0 0.0
2016-Nov-15 02:33N 52°27' E 004°35'0 0.0
2016-Nov-15 00:33N 52°27' E 004°35'0 0.0
2016-Nov-14 23:42N 52°27' E 004°35'0 0.0
2016-Nov-14 19:33N 52°27' E 004°35'0 0.0
2016-Nov-14 17:33N 52°27' E 004°35'0 0.0
2016-Nov-14 16:33N 52°27' E 004°35'0 0.0
2016-Nov-14 15:33N 52°27' E 004°35'0 0.0
2016-Nov-14 11:33N 52°27' E 004°35'0 0.0
2016-Nov-14 08:33N 52°27' E 004°35'0 0.0
2016-Nov-14 05:33N 52°28' E 004°35'0 0.0
2016-Nov-14 00:33N 52°28' E 004°35'0 0.0
2016-Nov-13 23:33N 52°28' E 004°35'0 0.0
2016-Nov-13 22:33N 52°28' E 004°35'0 0.0
2016-Nov-13 19:33N 52°28' E 004°35'0 0.0
2016-Nov-13 18:33N 52°28' E 004°35'0 0.0
2016-Nov-13 17:33N 52°28' E 004°35'8 3.8
2016-Nov-13 15:34N 52°26' E 004°47'5 2.2
2016-Nov-13 13:31N 52°23' E 004°53'0 0.0
2016-Nov-13 10:31N 52°23' E 004°53'0 0.0
2016-Nov-13 08:31N 52°23' E 004°53'0 0.0
2016-Nov-13 05:31N 52°23' E 004°53'0 0.0
2016-Nov-13 03:31N 52°23' E 004°53'0 0.0
2016-Nov-12 23:28N 52°23' E 004°53'0 0.0
2016-Nov-12 21:28N 52°23' E 004°53'0 0.0
2016-Nov-12 19:31N 52°23' E 004°53'0 0.0
2016-Nov-12 17:31N 52°23' E 004°53'0 0.0
2016-Nov-12 16:31N 52°23' E 004°53'0 0.0
2016-Nov-12 15:31N 52°23' E 004°53'0 0.0
2016-Nov-12 14:31N 52°23' E 004°53'0 0.0
2016-Nov-12 13:31N 52°23' E 004°53'0 0.0
2016-Nov-12 12:31N 52°23' E 004°53'0 0.0
2016-Nov-12 11:28N 52°23' E 004°53'0 0.0
2016-Nov-12 09:31N 52°23' E 004°53'0 0.0
2016-Nov-12 06:31N 52°23' E 004°53'0 0.0
2016-Nov-12 03:31N 52°23' E 004°53'0 0.0
2016-Nov-12 02:31N 52°23' E 004°53'0 0.0
2016-Nov-12 00:31N 52°23' E 004°53'0 0.0
2016-Nov-11 23:31N 52°23' E 004°53'0 0.0
2016-Nov-11 19:34N 52°23' E 004°53'0 0.0
2016-Nov-11 15:31N 52°23' E 004°53'0 0.0
2016-Nov-11 14:31N 52°23' E 004°53'0 0.0
2016-Nov-11 10:28N 52°23' E 004°53'0 0.0
2016-Nov-11 09:31N 52°23' E 004°53'0 0.0
2016-Nov-11 06:31N 52°23' E 004°53'0 0.0
2016-Nov-11 05:34N 52°23' E 004°53'0 0.0
2016-Nov-11 04:31N 52°23' E 004°53'0 0.0
2016-Nov-11 03:34N 52°23' E 004°53'0 0.0
2016-Nov-11 02:34N 52°23' E 004°53'0 0.0
2016-Nov-11 01:34N 52°23' E 004°53'0 0.0
2016-Nov-11 00:34N 52°23' E 004°53'0 0.0
2016-Nov-10 23:34N 52°23' E 004°53'0 0.0
2016-Nov-10 22:31N 52°23' E 004°53'0 0.0
2016-Nov-10 20:31N 52°23' E 004°53'0 0.0
2016-Nov-10 18:34N 52°23' E 004°53'0 0.0
2016-Nov-10 16:34N 52°23' E 004°53'0 0.0
2016-Nov-10 15:34N 52°23' E 004°53'0 0.0
2016-Nov-10 11:34N 52°23' E 004°53'0 0.0
2016-Nov-10 10:33N 52°23' E 004°53'0 0.0
2016-Nov-10 09:34N 52°23' E 004°53'0 0.0
2016-Nov-10 08:34N 52°23' E 004°53'0 0.0
2016-Nov-10 07:33N 52°23' E 004°53'0 0.0
2016-Nov-10 06:34N 52°23' E 004°53'0 0.0
2016-Nov-10 05:33N 52°23' E 004°53'0 0.0
2016-Nov-10 04:33N 52°23' E 004°53'0 0.0
2016-Nov-10 00:30N 52°23' E 004°53'0 0.0
2016-Nov-09 22:33N 52°23' E 004°53'0 0.0
2016-Nov-09 20:36N 52°23' E 004°53'0 0.0
2016-Nov-09 19:51N 52°23' E 004°53'0 0.0
2016-Nov-09 19:03N 52°23' E 004°53'0 0.0
2016-Nov-09 18:33N 52°23' E 004°53'0 0.0
2016-Nov-09 17:33N 52°23' E 004°53'0 0.0
2016-Nov-09 15:33N 52°23' E 004°53'0 0.0
2016-Nov-09 13:33N 52°23' E 004°53'0 0.0
2016-Nov-09 08:30N 52°23' E 004°53'0 0.0
2016-Nov-09 07:33N 52°23' E 004°53'0 0.0
2016-Nov-09 05:33N 52°23' E 004°53'0 0.0
2016-Nov-09 04:33N 52°23' E 004°53'0 0.0
2016-Nov-09 02:33N 52°23' E 004°53'  
Track history (hours):
 
Tides and Currents Weather Stations Pressure Air Temp Water Temp Dewpoint Dewpoint Depression Visibility Wind Speed Wind Dir Waves Ship Positions

Ide Min (Netherlands)

Ship's website: http://www.idemin.nl/english/english.html

Last reported at 2016-Nov-19 01:32 UTC. Time now 2016-Dec-10 09:00 UTC.
Position N 52°23' E 004°53'.
Warning: this ship's position is 21 days out of date.

Length 40 m; draft 2.4 m.

MMSI: 244537000.

Date/timePositionNaut miles runAvg speedWind from/ knotsBaromVisibWave heightAir tempDewpointWater temp
2016-Nov-19 01:32N 52°23' E 004°53'0 0.0
2016-Nov-19 00:32N 52°23' E 004°53'0 0.0
2016-Nov-18 23:32N 52°23' E 004°53'0 0.0
2016-Nov-18 20:32N 52°23' E 004°53'0 0.0
2016-Nov-18 18:32N 52°23' E 004°53'0 0.0
2016-Nov-18 17:32N 52°23' E 004°53'0 0.0
2016-Nov-18 14:32N 52°23' E 004°53'0 0.0
2016-Nov-18 12:32N 52°23' E 004°53'0 0.0
2016-Nov-18 11:32N 52°23' E 004°53'0 0.0
2016-Nov-18 09:32N 52°23' E 004°53'0 0.0
2016-Nov-18 07:32N 52°23' E 004°53'0 0.0
2016-Nov-18 05:32N 52°23' E 004°53'0 0.0
2016-Nov-18 04:32N 52°23' E 004°53'0 0.0
2016-Nov-18 01:32N 52°23' E 004°53'0 0.0
2016-Nov-18 00:32N 52°23' E 004°53'0 0.0
2016-Nov-17 23:32N 52°23' E 004°53'0 0.0
2016-Nov-17 22:32N 52°23' E 004°53'0 0.0
2016-Nov-17 21:32N 52°23' E 004°53'0 0.0
2016-Nov-17 19:32N 52°23' E 004°53'0 0.0
2016-Nov-17 18:32N 52°23' E 004°53'0 0.0
2016-Nov-17 14:32N 52°23' E 004°53'0 0.0
2016-Nov-17 13:32N 52°23' E 004°53'0 0.0
2016-Nov-17 12:32N 52°23' E 004°53'0 0.0
2016-Nov-17 11:32N 52°23' E 004°53'0 0.0
2016-Nov-17 08:32N 52°23' E 004°53'0 0.0
2016-Nov-17 06:32N 52°23' E 004°53'0 0.0
2016-Nov-17 02:32N 52°23' E 004°53'0 0.0
2016-Nov-16 23:32N 52°23' E 004°53'0 0.0
2016-Nov-16 22:32N 52°23' E 004°53'0 0.0
2016-Nov-16 20:32N 52°23' E 004°53'0 0.0
2016-Nov-16 19:32N 52°23' E 004°53'0 0.0
2016-Nov-16 18:32N 52°23' E 004°53'0 0.0
2016-Nov-16 17:32N 52°23' E 004°53'0 0.0
2016-Nov-16 16:32N 52°23' E 004°53'12 2.9
2016-Nov-16 12:22N 52°27' E 004°35'0 0.0
2016-Nov-16 09:30N 52°27' E 004°35'0 0.0
2016-Nov-16 08:33N 52°27' E 004°35'0 0.0
2016-Nov-16 07:34N 52°27' E 004°35'0 0.0
2016-Nov-16 06:31N 52°27' E 004°35'0 0.0
2016-Nov-16 04:33N 52°27' E 004°35'0 0.0
2016-Nov-16 03:33N 52°27' E 004°35'0 0.0
2016-Nov-16 02:33N 52°27' E 004°35'0 0.0
2016-Nov-16 01:33N 52°27' E 004°35'0 0.0
2016-Nov-15 21:33N 52°27' E 004°35'0 0.0
2016-Nov-15 19:33N 52°27' E 004°35'0 0.0
2016-Nov-15 18:33N 52°27' E 004°35'0 0.0
2016-Nov-15 13:33N 52°27' E 004°35'0 0.0
2016-Nov-15 12:33N 52°27' E 004°35'0 0.0
2016-Nov-15 11:33N 52°27' E 004°35'0 0.0
2016-Nov-15 10:33N 52°27' E 004°35'0 0.0
2016-Nov-15 07:33N 52°27' E 004°35'0 0.0
2016-Nov-15 06:33N 52°27' E 004°35'0 0.0
2016-Nov-15 05:51N 52°27' E 004°35'0 0.0
2016-Nov-15 03:33N 52°27' E 004°35'0 0.0
2016-Nov-15 02:33N 52°27' E 004°35'0 0.0
2016-Nov-15 00:33N 52°27' E 004°35'0 0.0
2016-Nov-14 23:42N 52°27' E 004°35'0 0.0
2016-Nov-14 19:33N 52°27' E 004°35'0 0.0
2016-Nov-14 17:33N 52°27' E 004°35'0 0.0
2016-Nov-14 16:33N 52°27' E 004°35'0 0.0
2016-Nov-14 15:33N 52°27' E 004°35'0 0.0
2016-Nov-14 11:33N 52°27' E 004°35'0 0.0
2016-Nov-14 08:33N 52°27' E 004°35'0 0.0
2016-Nov-14 05:33N 52°28' E 004°35'0 0.0
2016-Nov-14 00:33N 52°28' E 004°35'0 0.0
2016-Nov-13 23:33N 52°28' E 004°35'0 0.0
2016-Nov-13 22:33N 52°28' E 004°35'0 0.0
2016-Nov-13 19:33N 52°28' E 004°35'0 0.0
2016-Nov-13 18:33N 52°28' E 004°35'0 0.0
2016-Nov-13 17:33N 52°28' E 004°35'8 3.8
2016-Nov-13 15:34N 52°26' E 004°47'5 2.2
2016-Nov-13 13:31N 52°23' E 004°53'0 0.0
2016-Nov-13 10:31N 52°23' E 004°53'0 0.0
2016-Nov-13 08:31N 52°23' E 004°53'0 0.0
2016-Nov-13 05:31N 52°23' E 004°53'0 0.0
2016-Nov-13 03:31N 52°23' E 004°53'0 0.0
2016-Nov-12 23:28N 52°23' E 004°53'0 0.0
2016-Nov-12 21:28N 52°23' E 004°53'0 0.0
2016-Nov-12 19:31N 52°23' E 004°53'0 0.0
2016-Nov-12 17:31N 52°23' E 004°53'0 0.0
2016-Nov-12 16:31N 52°23' E 004°53'0 0.0
2016-Nov-12 15:31N 52°23' E 004°53'0 0.0
2016-Nov-12 14:31N 52°23' E 004°53'0 0.0
2016-Nov-12 13:31N 52°23' E 004°53'0 0.0
2016-Nov-12 12:31N 52°23' E 004°53'0 0.0
2016-Nov-12 11:28N 52°23' E 004°53'0 0.0
2016-Nov-12 09:31N 52°23' E 004°53'0 0.0
2016-Nov-12 06:31N 52°23' E 004°53'0 0.0
2016-Nov-12 03:31N 52°23' E 004°53'0 0.0
2016-Nov-12 02:31N 52°23' E 004°53'0 0.0
2016-Nov-12 00:31N 52°23' E 004°53'0 0.0
2016-Nov-11 23:31N 52°23' E 004°53'0 0.0
2016-Nov-11 19:34N 52°23' E 004°53'0 0.0
2016-Nov-11 15:31N 52°23' E 004°53'0 0.0
2016-Nov-11 14:31N 52°23' E 004°53'0 0.0
2016-Nov-11 10:28N 52°23' E 004°53'0 0.0
2016-Nov-11 09:31N 52°23' E 004°53'0 0.0
2016-Nov-11 06:31N 52°23' E 004°53'0 0.0
2016-Nov-11 05:34N 52°23' E 004°53'0 0.0
2016-Nov-11 04:31N 52°23' E 004°53'0 0.0
2016-Nov-11 03:34N 52°23' E 004°53'0 0.0
2016-Nov-11 02:34N 52°23' E 004°53'0 0.0
2016-Nov-11 01:34N 52°23' E 004°53'0 0.0
2016-Nov-11 00:34N 52°23' E 004°53'0 0.0
2016-Nov-10 23:34N 52°23' E 004°53'0 0.0
2016-Nov-10 22:31N 52°23' E 004°53'0 0.0
2016-Nov-10 20:31N 52°23' E 004°53'0 0.0
2016-Nov-10 18:34N 52°23' E 004°53'0 0.0
2016-Nov-10 16:34N 52°23' E 004°53'0 0.0
2016-Nov-10 15:34N 52°23' E 004°53'0 0.0
2016-Nov-10 11:34N 52°23' E 004°53'0 0.0
2016-Nov-10 10:33N 52°23' E 004°53'0 0.0
2016-Nov-10 09:34N 52°23' E 004°53'0 0.0
2016-Nov-10 08:34N 52°23' E 004°53'0 0.0
2016-Nov-10 07:33N 52°23' E 004°53'0 0.0
2016-Nov-10 06:34N 52°23' E 004°53'0 0.0
2016-Nov-10 05:33N 52°23' E 004°53'0 0.0
2016-Nov-10 04:33N 52°23' E 004°53'0 0.0
2016-Nov-10 00:30N 52°23' E 004°53'0 0.0
2016-Nov-09 22:33N 52°23' E 004°53'0 0.0
2016-Nov-09 20:36N 52°23' E 004°53'0 0.0
2016-Nov-09 19:51N 52°23' E 004°53'0 0.0
2016-Nov-09 19:03N 52°23' E 004°53'0 0.0
2016-Nov-09 18:33N 52°23' E 004°53'0 0.0
2016-Nov-09 17:33N 52°23' E 004°53'0 0.0
2016-Nov-09 15:33N 52°23' E 004°53'0 0.0
2016-Nov-09 13:33N 52°23' E 004°53'0 0.0
2016-Nov-09 08:30N 52°23' E 004°53'0 0.0
2016-Nov-09 07:33N 52°23' E 004°53'0 0.0
2016-Nov-09 05:33N 52°23' E 004°53'0 0.0
2016-Nov-09 04:33N 52°23' E 004°53'0 0.0
2016-Nov-09 02:33N 52°23' E 004°53'  

Dump ship's entire track history